createdAt,value
2022-07-30T00:01:21.954Z,18.00
2022-07-30T00:06:18.639Z,17.60
2022-07-30T00:08:45.609Z,17.60
2022-07-30T00:11:13.068Z,17.50
2022-07-30T00:40:49.276Z,17.40
2022-07-30T00:43:17.541Z,17.30
2022-07-30T00:45:45.070Z,17.10
2022-07-30T00:48:14.046Z,17.00
2022-07-30T00:50:41.798Z,17.10
2022-07-30T00:53:12.300Z,17.10
2022-07-30T00:55:39.434Z,17.10
2022-07-30T00:58:06.509Z,17.10
2022-07-30T01:00:33.502Z,17.10
2022-07-30T01:03:00.511Z,17.10
2022-07-30T01:05:27.501Z,17.10
2022-07-30T01:07:55.283Z,17.10
2022-07-30T01:10:22.613Z,17.00
2022-07-30T01:12:52.601Z,17.00
2022-07-30T01:15:20.365Z,17.00
2022-07-30T01:17:52.882Z,16.90
2022-07-30T01:21:05.739Z,16.60
2022-07-30T01:23:39.862Z,16.60
2022-07-30T01:26:14.970Z,16.60
2022-07-30T01:28:54.990Z,16.60
2022-07-30T01:31:26.081Z,16.60
2022-07-30T01:33:54.992Z,16.50
2022-07-30T01:36:23.489Z,16.50
2022-07-30T01:38:52.239Z,16.40
2022-07-30T01:41:20.493Z,16.40
2022-07-30T01:43:47.945Z,16.40
2022-07-30T01:46:17.815Z,16.40
2022-07-30T01:48:48.149Z,16.40
2022-07-30T01:51:18.392Z,16.20
2022-07-30T01:53:51.632Z,16.10
2022-07-30T01:56:24.507Z,16.00
2022-07-30T01:58:54.663Z,15.90
2022-07-30T02:01:25.102Z,15.90
2022-07-30T02:04:01.220Z,15.80
2022-07-30T02:06:42.873Z,15.80
2022-07-30T02:09:20.126Z,15.70
2022-07-30T02:12:07.068Z,15.60
2022-07-30T02:14:48.447Z,15.60
2022-07-30T02:17:30.159Z,15.60
2022-07-30T02:20:05.636Z,15.70
2022-07-30T02:22:41.072Z,15.70
2022-07-30T02:25:10.645Z,15.70
2022-07-30T02:27:42.134Z,15.70
2022-07-30T02:30:11.337Z,15.60
2022-07-30T02:32:42.891Z,15.60
2022-07-30T02:35:18.813Z,15.50
2022-07-30T02:37:50.803Z,15.50
2022-07-30T02:40:20.476Z,15.60
2022-07-30T02:42:50.659Z,15.60
2022-07-30T02:45:22.753Z,15.60
2022-07-30T02:47:58.938Z,15.60
2022-07-30T02:50:28.188Z,15.60
2022-07-30T02:52:58.501Z,15.60
2022-07-30T02:55:28.897Z,15.60
2022-07-30T02:57:57.732Z,15.60
2022-07-30T03:00:29.511Z,15.60
2022-07-30T03:02:57.756Z,15.60
2022-07-30T03:05:26.845Z,15.50
2022-07-30T03:07:59.762Z,15.50
2022-07-30T03:10:27.838Z,15.50
2022-07-30T03:12:56.339Z,15.50
2022-07-30T03:15:23.703Z,15.50
2022-07-30T03:17:55.548Z,15.50
2022-07-30T03:20:30.141Z,15.40
2022-07-30T03:22:59.972Z,15.30
2022-07-30T03:25:31.086Z,15.20
2022-07-30T03:28:04.070Z,15.10
2022-07-30T03:30:33.613Z,15.00
2022-07-30T03:33:01.278Z,14.80
2022-07-30T03:35:31.275Z,14.70
2022-07-30T03:38:00.059Z,14.60
2022-07-30T03:40:27.814Z,14.50
2022-07-30T03:42:55.958Z,14.40
2022-07-30T03:45:25.510Z,14.30
2022-07-30T03:47:58.250Z,14.30
2022-07-30T03:50:26.174Z,14.10
2022-07-30T03:52:53.729Z,14.00
2022-07-30T03:55:22.213Z,14.00
2022-07-30T03:57:49.345Z,13.90
2022-07-30T04:00:18.297Z,13.80
2022-07-30T04:02:50.079Z,13.80
2022-07-30T04:05:17.287Z,13.80
2022-07-30T04:07:46.549Z,13.80
2022-07-30T04:10:16.330Z,13.80
2022-07-30T04:13:12.553Z,13.90
2022-07-30T04:16:38.236Z,14.00
2022-07-30T04:18:51.229Z,14.00
2022-07-30T04:21:20.789Z,14.10
2022-07-30T04:24:02.295Z,14.00
2022-07-30T04:26:35.495Z,14.00
2022-07-30T04:29:06.944Z,14.00
2022-07-30T04:31:40.287Z,13.90
2022-07-30T04:34:55.994Z,13.70
2022-07-30T04:37:55.157Z,13.60
2022-07-30T04:40:22.300Z,13.60
2022-07-30T04:42:49.530Z,13.80
2022-07-30T04:45:16.937Z,14.00
2022-07-30T04:47:53.745Z,14.10
2022-07-30T04:50:46.346Z,14.30
2022-07-30T04:53:19.617Z,14.40
2022-07-30T04:55:57.311Z,14.60
2022-07-30T04:58:28.698Z,14.60
2022-07-30T05:00:57.911Z,14.70
2022-07-30T05:03:30.422Z,14.80
2022-07-30T05:05:59.113Z,14.90
2022-07-30T05:08:31.278Z,15.00
2022-07-30T05:11:00.901Z,15.10
2022-07-30T05:13:34.510Z,15.30
2022-07-30T05:16:05.805Z,15.80
2022-07-30T05:18:32.965Z,16.70
2022-07-30T05:21:00.163Z,17.80
2022-07-30T05:29:20.008Z,19.20
2022-07-30T05:32:09.720Z,20.70
2022-07-30T05:34:37.384Z,22.30
2022-07-30T05:37:05.009Z,23.40
2022-07-30T05:39:32.467Z,24.20
2022-07-30T05:42:19.905Z,25.10
2022-07-30T05:44:49.201Z,25.60
2022-07-30T05:47:16.198Z,26.00
2022-07-30T05:49:44.747Z,26.50
2022-07-30T05:52:15.111Z,27.10
2022-07-30T05:54:42.618Z,27.20
2022-07-30T05:57:36.799Z,27.00
2022-07-30T06:00:07.659Z,27.40
2022-07-30T06:02:43.864Z,27.60
2022-07-30T06:08:04.410Z,28.50
2022-07-30T06:10:32.286Z,28.70
2022-07-30T06:12:59.669Z,28.70
2022-07-30T06:15:27.141Z,28.60
2022-07-30T06:17:59.567Z,28.80
2022-07-30T06:20:55.692Z,28.80
2022-07-30T06:23:31.055Z,28.90
2022-07-30T06:26:09.381Z,29.40
2022-07-30T06:28:38.550Z,29.50
2022-07-30T06:31:15.210Z,29.50
2022-07-30T06:33:43.227Z,29.50
2022-07-30T06:36:14.046Z,29.00
2022-07-30T06:39:07.955Z,28.80
2022-07-30T06:42:00.819Z,28.70
2022-07-30T06:44:38.365Z,29.00
2022-07-30T06:47:28.940Z,29.60
2022-07-30T06:49:57.688Z,29.30
2022-07-30T06:52:26.309Z,29.10
2022-07-30T06:54:54.674Z,29.00
2022-07-30T06:57:38.751Z,29.30
2022-07-30T07:00:17.770Z,29.40
2022-07-30T07:02:46.174Z,29.00
2022-07-30T07:05:14.790Z,28.70
2022-07-30T07:07:58.188Z,28.10
2022-07-30T07:10:28.486Z,28.80
2022-07-30T07:13:16.009Z,28.80
2022-07-30T07:15:43.333Z,28.40
2022-07-30T07:18:15.406Z,28.70
2022-07-30T07:20:49.789Z,29.10
2022-07-30T07:23:19.599Z,29.30
2022-07-30T07:25:48.827Z,29.50
2022-07-30T07:28:16.760Z,29.40
2022-07-30T07:30:45.073Z,29.40
2022-07-30T07:33:15.616Z,29.30
2022-07-30T07:35:49.704Z,29.10
2022-07-30T07:38:25.783Z,28.90
2022-07-30T07:40:54.442Z,29.10
2022-07-30T07:43:22.023Z,29.00
2022-07-30T07:45:49.971Z,28.90
2022-07-30T07:48:19.258Z,29.00
2022-07-30T07:50:51.708Z,28.70
2022-07-30T07:53:30.691Z,28.70
2022-07-30T07:55:58.740Z,28.40
2022-07-30T07:58:27.166Z,28.50
2022-07-30T08:00:58.346Z,28.40
2022-07-30T08:03:45.352Z,28.30
2022-07-30T08:06:32.360Z,28.80
2022-07-30T08:09:43.859Z,29.00
2022-07-30T08:12:27.642Z,28.90
2022-07-30T08:15:13.165Z,28.80
2022-07-30T08:18:03.066Z,28.70
2022-07-30T08:20:39.843Z,28.70
2022-07-30T08:23:08.303Z,28.80
2022-07-30T08:25:35.425Z,28.70
2022-07-30T08:28:03.366Z,28.70
2022-07-30T08:30:31.502Z,29.00
2022-07-30T08:32:59.501Z,29.20
2022-07-30T08:35:26.565Z,29.30
2022-07-30T08:37:53.668Z,29.80
2022-07-30T08:40:26.516Z,30.40
2022-07-30T08:43:05.476Z,30.60
2022-07-30T08:45:35.280Z,30.70
2022-07-30T08:48:29.598Z,30.70
2022-07-30T08:50:57.189Z,31.10
2022-07-30T08:53:35.523Z,31.00
2022-07-30T08:56:04.775Z,31.40
2022-07-30T08:58:36.960Z,31.60
2022-07-30T09:01:05.998Z,31.90
2022-07-30T09:03:34.082Z,32.10
2022-07-30T15:19:19.309Z,30.00
2022-07-30T15:21:46.326Z,30.00
2022-07-30T15:24:13.347Z,29.60
2022-07-30T15:26:40.499Z,29.50
2022-07-30T15:29:11.641Z,29.50
2022-07-30T15:31:40.240Z,29.50
2022-07-30T15:34:10.899Z,29.40
2022-07-30T15:36:41.752Z,29.30
2022-07-30T15:39:08.772Z,29.40
2022-07-30T15:41:37.205Z,29.40
2022-07-30T15:44:04.641Z,29.20
2022-07-30T15:46:31.614Z,29.00
2022-07-30T15:48:58.950Z,28.80
2022-07-30T15:51:26.003Z,28.70
2022-07-30T15:53:52.986Z,28.60
2022-07-30T15:56:20.687Z,28.60
2022-07-30T15:58:47.783Z,28.60
2022-07-30T16:01:14.889Z,28.60
2022-07-30T20:09:44.839Z,22.10
2022-07-30T20:12:15.529Z,22.00
2022-07-30T20:14:44.125Z,21.80
2022-07-30T20:17:11.110Z,21.60
2022-07-30T20:19:38.192Z,21.40
2022-07-30T20:22:14.751Z,21.30
2022-07-30T20:24:42.466Z,21.20
2022-07-30T20:27:36.560Z,21.20
2022-07-30T20:29:56.720Z,21.00
2022-07-30T20:32:24.630Z,20.90
2022-07-30T20:34:52.377Z,20.90
2022-07-30T20:37:21.736Z,20.80
2022-07-30T20:39:50.469Z,20.70
2022-07-30T20:42:18.521Z,20.60
2022-07-30T20:44:49.375Z,20.50
2022-07-30T20:47:34.801Z,20.40
2022-07-30T20:50:10.776Z,20.30
2022-07-30T20:52:46.817Z,20.00
2022-07-30T20:55:22.058Z,20.10
2022-07-30T20:58:01.967Z,19.90
2022-07-30T21:00:40.811Z,19.80
2022-07-30T21:05:56.490Z,19.70
2022-07-30T21:08:25.557Z,19.70
2022-07-30T21:10:53.738Z,19.70
2022-07-30T21:13:22.951Z,19.70
2022-07-30T21:16:01.764Z,19.70
2022-07-30T21:18:31.488Z,19.60
2022-07-30T21:21:00.651Z,19.60
2022-07-30T21:23:27.881Z,19.60
2022-07-30T21:28:41.916Z,19.40
2022-07-30T21:31:09.800Z,19.30
2022-07-30T21:33:37.869Z,19.20
2022-07-30T21:36:10.502Z,19.10
2022-07-30T21:38:42.611Z,19.10
2022-07-30T21:41:15.247Z,19.00
2022-07-30T21:43:44.269Z,18.90
2022-07-30T21:46:12.381Z,18.90
2022-07-30T21:48:39.976Z,18.80
2022-07-30T21:51:08.519Z,18.80
2022-07-30T21:53:44.884Z,18.70
2022-07-30T21:56:14.997Z,18.80
2022-07-30T22:01:17.132Z,18.60
2022-07-30T22:04:03.274Z,18.60
2022-07-30T22:06:39.982Z,18.50
2022-07-30T22:09:19.345Z,18.40
2022-07-30T22:14:29.198Z,18.20
2022-07-30T22:16:56.918Z,18.20
2022-07-30T22:19:25.777Z,18.10
2022-07-30T22:32:04.106Z,18.50
2022-07-30T22:36:59.441Z,17.60
2022-07-30T22:39:32.249Z,17.60
2022-07-30T22:44:42.062Z,17.90
2022-07-30T22:47:18.958Z,17.60
2022-07-30T22:50:00.360Z,17.50
2022-07-30T22:54:59.656Z,17.40
2022-07-30T22:57:37.774Z,17.30
2022-07-30T23:00:14.251Z,17.10
2022-07-30T23:02:56.292Z,17.10
2022-07-30T23:05:24.052Z,16.90
2022-07-30T23:07:51.683Z,16.80
2022-07-30T23:10:20.332Z,16.80
2022-07-30T23:12:26.730Z,19.60
2022-07-30T23:12:31.574Z,19.50
2022-07-30T23:12:51.416Z,16.80
2022-07-30T23:15:19.813Z,16.80
2022-07-30T23:17:47.682Z,16.80
2022-07-30T23:20:23.157Z,17.00
2022-07-30T23:22:50.760Z,17.00
2022-07-30T23:25:18.189Z,17.10
2022-07-30T23:27:46.797Z,17.10
2022-07-30T23:30:14.417Z,17.00
2022-07-30T23:32:41.761Z,16.90
2022-07-30T23:35:10.608Z,16.90
2022-07-30T23:37:48.960Z,16.90
2022-07-30T23:40:18.615Z,16.90
2022-07-30T23:42:47.013Z,16.90
2022-07-30T23:45:14.139Z,17.00
2022-07-30T23:47:52.121Z,16.90
2022-07-30T23:50:29.504Z,16.70
2022-07-30T23:52:56.478Z,16.50
2022-07-30T23:55:23.705Z,16.40
2022-07-30T23:57:50.747Z,16.30
